Wainwright, OK

12:12 PM CST on January 31, 2015 (GMT -0600)
Davis | Change Station
CLOSE
Current Station
Airport
Location: Muskogee,
Elevation: 610 ft
Nearby Weather Stations

Elev 610 ft 35.66 °N, 95.37 °W | Updated 19 minutes ago

Mostly Cloudy
Mostly Cloudy
45 °F
Feels Like 40 °F
N
10
Wind Variable Wind from SSE

Today
High -- | Low -- °F
--% Chance of Precip.
Yesterday
High -- | Low -- °F
Precip. -- in
7:23 AM 5:48 PM
Waxing Gibbous, 91% visible
Pressure 30.23 in
Visibility 10.0 miles
Clouds Few 12000 ft
Windchill 40 °F
Dew Point 27 °F
Humidity 49%
Rainfall 0.00 in
Snow Depth Not available.
UV 4 out of 12
Pollen 1.50 out of 12
Air Quality Not available.
Flu Activity Not available.
METAR KMKO 311753Z AUTO 15009KT 10SM FEW120 07/M03 A3023 RMK AO2 SLP236 T00721028 10072 20050 58013

More Conditions Fewer Conditions

Pressure 30.23 in
Visibility 10.0 miles
Clouds Few 12000 ft
Windchill 40 °F
Dew Point 27 °F
Humidity 49%
Rainfall 0.00 in
Snow Depth Not available.
UV 4 out of 12
Pollen 1.50 out of 12
Air Quality Not available.
Flu Activity Not available.
METAR KMKO 311753Z AUTO 15009KT 10SM FEW120 07/M03 A3023 RMK AO2 SLP236 T00721028 10072 20050 58013

More Conditions Fewer Conditions

Nowcast | as of 11:14 am CST on January 31, 2015

At 11:11 am... National Weather Service Doppler radar continued to indicate a broad area of predominantly light rain... moving to the northeast across parts of central and eastern Oklahoma. Most affected were locations along and west of Highway 75 and along and north of I 40. Through 1:00 PM... light to occasionally moderate rain is expected to persist mostly along and west of Highway 75 and along and north of I 40 in eastern Oklahoma. The area of rain will continue to slowly advance eastward. Light average hourly rainfall rates of several hundredth of an inch... are anticipated.

×

10-Day Weather Forecast

Almanac

Astronomy

Jan. 31, 2015 Rise Set
Actual Time
Civil Twilight
Nautical Twilight
Astronomical Twilight
Moon
Length of Visible Light
Length of Day
Tomorrow will be .
, % of the Moon is Illuminated

Today's Extremes

State Highs State Lows

Community

WunderPhotos

Upload Photos

1,792,141 photos uploaded!

WunderBlogs® & News

Nearby

Air Quality

  Air Quality AQ Index Pollutant
Not available.

Snow Depth

Station Depth Elevation

Earthquake Activity

City Distance Mag. Time & Date
Minimum magnitude displayed is 2.5.

Coastal Water Temperatures

Place Temperature

Nearby Weather Stations